Time;durP1;ratioP1;P1;durP2;ratioP2;P2;SDS_P1;SDS_P2;PMS_P1;PMS_P2;Temp;Humidity;BMP_temperature;BMP_pressure;BME280_temperature;BME280_humidity;BME280_pressure;Samples;Min_cycle;Max_cycle;Signal;HPM_P1;HPM_P2
2023/12/02 00:01:58;;;;;;;7.82;3.72;;;;;;;;;;5004986;28;99856;-73
2023/12/02 00:04:25;;;;;;;8.07;3.88;;;;;;;;;;5005837;28;98720;-71
2023/12/02 00:06:51;;;;;;;8.63;3.83;;;;;;;;;;5005938;28;99965;-72
2023/12/02 00:09:17;;;;;;;8.35;4.00;;;;;;;;;;5008870;28;99037;-73
2023/12/02 00:11:48;;;;;;;10.02;4.25;;;;;;;;;;5004653;28;99247;-72
2023/12/02 00:14:14;;;;;;;9.43;4.15;;;;;;;;;;5005403;28;99248;-72
2023/12/02 00:16:41;;;;;;;7.95;3.72;;;;;;;;;;5005641;28;99033;-72
2023/12/02 00:19:07;;;;;;;8.57;3.85;;;;;;;;;;5006115;28;100299;-73
2023/12/02 00:21:34;;;;;;;8.70;3.78;;;;;;;;;;5004359;28;99138;-72
2023/12/02 00:24:01;;;;;;;8.20;3.90;;;;;;;;;;5005551;28;98497;-72
2023/12/02 00:26:28;;;;;;;8.10;3.85;;;;;;;;;;5004848;28;100399;-73
2023/12/02 00:28:57;;;;;;;7.90;3.88;;;;;;;;;;5004765;28;100073;-73
2023/12/02 00:31:23;;;;;;;7.97;4.00;;;;;;;;;;5008532;28;98836;-73
2023/12/02 00:33:50;;;;;;;7.50;3.60;;;;;;;;;;4993315;28;99250;-72
2023/12/02 00:36:17;;;;;;;8.93;3.88;;;;;;;;;;4985742;28;98812;-72
2023/12/02 00:38:43;;;;;;;8.68;4.20;;;;;;;;;;4986968;28;99683;-72
2023/12/02 00:41:10;;;;;;;8.57;3.90;;;;;;;;;;5004825;28;99254;-73
2023/12/02 00:43:37;;;;;;;8.45;3.90;;;;;;;;;;5005227;28;97917;-71
2023/12/02 00:46:03;;;;;;;7.70;3.50;;;;;;;;;;5005009;28;98628;-72
2023/12/02 00:48:30;;;;;;;8.35;3.92;;;;;;;;;;5005168;28;99171;-72
2023/12/02 00:50:57;;;;;;;10.52;3.75;;;;;;;;;;5004431;28;99288;-71
2023/12/02 00:53:24;;;;;;;11.00;4.00;;;;;;;;;;5007744;28;100641;-71
2023/12/02 00:55:50;;;;;;;9.60;4.05;;;;;;;;;;5004860;28;98939;-71
2023/12/02 00:58:17;;;;;;;10.93;4.18;;;;;;;;;;5005346;28;99256;-71
2023/12/02 01:00:53;;;;;;;9.82;4.13;;;;;;;;;;5004536;28;101798;-71
2023/12/02 01:03:19;;;;;;;16.75;3.97;;;;;;;;;;5005008;28;105819;-71
2023/12/02 01:05:46;;;;;;;9.05;3.70;;;;;;;;;;5004514;28;98891;-71
2023/12/02 01:08:12;;;;;;;9.27;4.07;;;;;;;;;;5004851;28;98349;-71
2023/12/02 01:10:39;;;;;;;8.48;4.28;;;;;;;;;;5004568;28;98663;-71
2023/12/02 01:13:05;;;;;;;8.02;3.60;;;;;;;;;;5005624;28;99116;-71
2023/12/02 01:15:32;;;;;;;11.05;4.38;;;;;;;;;;5005893;28;101074;-70
2023/12/02 01:17:58;;;;;;;8.40;4.10;;;;;;;;;;5004862;28;101149;-71
2023/12/02 01:20:25;;;;;;;8.02;3.97;;;;;;;;;;5004345;28;99180;-71
2023/12/02 01:22:52;;;;;;;8.27;3.97;;;;;;;;;;5004658;28;98919;-71
2023/12/02 01:25:18;;;;;;;9.25;3.88;;;;;;;;;;5003985;28;101875;-71
2023/12/02 01:27:45;;;;;;;7.75;3.80;;;;;;;;;;5003693;28;99579;-71
2023/12/02 01:30:11;;;;;;;8.55;4.10;;;;;;;;;;5004586;27;98803;-71
2023/12/02 01:32:38;;;;;;;7.47;3.50;;;;;;;;;;4994163;28;99841;-71
2023/12/02 01:35:04;;;;;;;8.45;4.25;;;;;;;;;;5007487;28;99510;-71
2023/12/02 01:37:31;;;;;;;9.23;4.20;;;;;;;;;;5004105;28;98889;-69
2023/12/02 01:39:57;;;;;;;8.27;4.00;;;;;;;;;;5003069;28;100227;-70
2023/12/02 01:42:24;;;;;;;7.65;3.70;;;;;;;;;;5004273;28;99190;-71
2023/12/02 01:44:50;;;;;;;8.50;3.88;;;;;;;;;;5004537;28;100122;-71
2023/12/02 01:47:17;;;;;;;9.80;4.05;;;;;;;;;;5004079;28;100085;-72
2023/12/02 01:49:44;;;;;;;9.18;4.50;;;;;;;;;;5002956;28;98465;-71
2023/12/02 01:52:11;;;;;;;8.38;3.88;;;;;;;;;;5004631;28;98859;-72
2023/12/02 01:54:37;;;;;;;8.23;3.92;;;;;;;;;;5003811;28;100380;-71
2023/12/02 01:57:05;;;;;;;8.13;3.78;;;;;;;;;;5007882;28;98199;-72
2023/12/02 01:59:31;;;;;;;7.13;3.50;;;;;;;;;;5002805;28;100052;-71
2023/12/02 02:02:00;;;;;;;8.50;4.30;;;;;;;;;;5003216;28;98719;-72
2023/12/02 02:04:27;;;;;;;8.38;4.00;;;;;;;;;;5003260;28;99225;-71
2023/12/02 02:06:53;;;;;;;8.23;3.97;;;;;;;;;;5003610;28;99276;-72
2023/12/02 02:09:20;;;;;;;8.68;4.00;;;;;;;;;;5004281;28;98521;-72
2023/12/02 02:11:48;;;;;;;8.80;4.35;;;;;;;;;;5003308;28;98895;-71
2023/12/02 02:14:14;;;;;;;8.73;4.00;;;;;;;;;;5002993;28;99453;-71
2023/12/02 02:16:41;;;;;;;9.02;3.75;;;;;;;;;;5003499;28;98662;-72
2023/12/02 02:19:07;;;;;;;8.27;4.13;;;;;;;;;;5006520;28;99902;-71
2023/12/02 02:21:34;;;;;;;8.43;3.92;;;;;;;;;;5003689;28;98677;-71
2023/12/02 02:24:00;;;;;;;8.07;3.72;;;;;;;;;;5003937;28;98976;-72
2023/12/02 02:26:27;;;;;;;8.38;3.90;;;;;;;;;;5003255;28;99275;-72
2023/12/02 02:28:53;;;;;;;8.38;4.10;;;;;;;;;;5003389;27;99901;-72
2023/12/02 02:31:20;;;;;;;17.23;4.20;;;;;;;;;;5003888;28;99540;-72
2023/12/02 02:33:46;;;;;;;9.35;3.92;;;;;;;;;;5002598;28;99126;-72
2023/12/02 02:36:13;;;;;;;8.98;4.25;;;;;;;;;;4985119;28;98604;-72
2023/12/02 02:38:39;;;;;;;9.52;4.15;;;;;;;;;;5003472;28;98928;-72
2023/12/02 02:41:06;;;;;;;11.57;3.88;;;;;;;;;;5006093;28;100687;-72
2023/12/02 02:43:32;;;;;;;8.05;4.07;;;;;;;;;;5003266;28;99878;-71
2023/12/02 02:45:59;;;;;;;8.85;4.07;;;;;;;;;;5003544;28;98960;-71
2023/12/02 02:48:25;;;;;;;8.00;3.85;;;;;;;;;;5003252;28;98716;-71
2023/12/02 02:50:52;;;;;;;9.10;3.97;;;;;;;;;;5002785;28;99844;-71
2023/12/02 02:53:19;;;;;;;11.18;3.92;;;;;;;;;;5002592;28;99897;-69
2023/12/02 02:55:45;;;;;;;12.23;4.25;;;;;;;;;;5002994;28;98769;-71
2023/12/02 02:58:12;;;;;;;11.63;4.30;;;;;;;;;;5003590;28;99025;-71
2023/12/02 03:00:38;;;;;;;17.95;4.40;;;;;;;;;;5002859;28;99402;-71
2023/12/02 03:03:05;;;;;;;8.70;3.90;;;;;;;;;;4988518;28;98908;-70
2023/12/02 03:05:31;;;;;;;8.80;3.92;;;;;;;;;;5002320;28;99202;-70
2023/12/02 03:07:58;;;;;;;8.13;4.10;;;;;;;;;;5003000;28;99043;-72
2023/12/02 03:10:24;;;;;;;8.43;3.83;;;;;;;;;;4985492;28;98764;-72
2023/12/02 03:12:51;;;;;;;8.85;4.05;;;;;;;;;;5003712;28;99214;-72
2023/12/02 03:15:18;;;;;;;9.45;4.03;;;;;;;;;;5005647;28;98660;-72
2023/12/02 03:17:44;;;;;;;9.40;4.20;;;;;;;;;;5005502;28;100996;-72
2023/12/02 03:20:11;;;;;;;8.55;3.88;;;;;;;;;;5005918;28;99934;-72
2023/12/02 03:22:38;;;;;;;8.15;3.92;;;;;;;;;;5006467;28;98885;-72
2023/12/02 03:25:06;;;;;;;8.13;3.83;;;;;;;;;;5009267;28;99302;-72
2023/12/02 03:27:32;;;;;;;8.20;3.85;;;;;;;;;;5005940;27;98982;-72
2023/12/02 03:29:59;;;;;;;9.38;3.80;;;;;;;;;;5006194;28;99295;-72
2023/12/02 03:32:26;;;;;;;10.48;4.10;;;;;;;;;;5006589;28;100024;-73
2023/12/02 03:34:52;;;;;;;8.90;4.15;;;;;;;;;;4988236;28;97869;-73
2023/12/02 03:37:19;;;;;;;9.18;4.07;;;;;;;;;;5006229;28;99147;-73
2023/12/02 03:39:45;;;;;;;8.15;3.85;;;;;;;;;;5005046;28;99585;-72
2023/12/02 03:42:12;;;;;;;10.68;4.40;;;;;;;;;;5005773;28;99382;-72
2023/12/02 03:44:38;;;;;;;8.52;4.03;;;;;;;;;;5008565;28;100985;-72
2023/12/02 03:47:05;;;;;;;8.25;3.60;;;;;;;;;;5006148;28;99088;-72
2023/12/02 03:49:31;;;;;;;8.70;4.22;;;;;;;;;;4987061;28;100329;-72
2023/12/02 03:51:59;;;;;;;8.63;4.05;;;;;;;;;;5005369;28;99835;-72
2023/12/02 03:54:26;;;;;;;9.90;4.22;;;;;;;;;;5005761;28;98815;-71
2023/12/02 03:56:52;;;;;;;8.30;3.97;;;;;;;;;;5006086;28;98884;-72
2023/12/02 03:59:19;;;;;;;8.63;3.83;;;;;;;;;;5005965;28;99965;-73
2023/12/02 04:01:46;;;;;;;8.75;4.13;;;;;;;;;;5005018;28;98881;-72
2023/12/02 04:04:13;;;;;;;8.52;3.85;;;;;;;;;;5005777;28;99384;-72
2023/12/02 04:06:39;;;;;;;8.43;4.05;;;;;;;;;;5007860;28;101171;-73
2023/12/02 04:09:06;;;;;;;8.82;4.00;;;;;;;;;;5005781;28;99675;-73
2023/12/02 04:11:32;;;;;;;11.32;3.97;;;;;;;;;;5004675;28;99579;-72
2023/12/02 04:13:59;;;;;;;8.85;3.90;;;;;;;;;;5005614;28;98499;-73
2023/12/02 04:16:26;;;;;;;10.55;4.63;;;;;;;;;;5005484;28;98963;-73
2023/12/02 04:18:52;;;;;;;9.20;4.30;;;;;;;;;;5005282;28;99265;-73
2023/12/02 04:21:19;;;;;;;9.98;4.47;;;;;;;;;;5004757;28;98606;-73
2023/12/02 04:23:45;;;;;;;9.88;4.78;;;;;;;;;;5005466;28;98875;-72
2023/12/02 04:26:12;;;;;;;9.93;4.60;;;;;;;;;;4984851;28;99612;-73
2023/12/02 04:28:38;;;;;;;9.85;4.60;;;;;;;;;;4988515;28;98875;-73
2023/12/02 04:31:05;;;;;;;10.02;4.25;;;;;;;;;;4984503;28;99763;-72
2023/12/02 04:33:32;;;;;;;10.88;4.78;;;;;;;;;;4985006;28;98987;-72
2023/12/02 04:35:59;;;;;;;9.68;4.28;;;;;;;;;;4984877;28;99931;-73
2023/12/02 04:38:25;;;;;;;10.13;4.65;;;;;;;;;;4984869;28;99135;-73
2023/12/02 04:40:52;;;;;;;9.68;4.50;;;;;;;;;;5004588;28;99039;-73
2023/12/02 04:43:18;;;;;;;8.68;4.13;;;;;;;;;;5005342;28;98920;-73
2023/12/02 04:45:45;;;;;;;10.85;4.57;;;;;;;;;;4986441;28;99252;-72
2023/12/02 04:48:11;;;;;;;9.43;4.50;;;;;;;;;;5006084;28;98609;-72
2023/12/02 04:50:38;;;;;;;13.00;4.47;;;;;;;;;;5007557;28;99336;-73
2023/12/02 04:53:05;;;;;;;9.10;4.47;;;;;;;;;;5005183;28;98937;-73
2023/12/02 04:55:31;;;;;;;11.10;4.50;;;;;;;;;;5004047;28;99318;-72
2023/12/02 04:57:57;;;;;;;10.05;4.07;;;;;;;;;;4986444;28;99550;-72
2023/12/02 05:00:24;;;;;;;11.43;4.35;;;;;;;;;;5004551;28;98580;-72
2023/12/02 05:02:51;;;;;;;14.02;4.72;;;;;;;;;;5005393;28;100183;-71
2023/12/02 05:05:18;;;;;;;10.57;4.60;;;;;;;;;;5004142;28;99290;-71
2023/12/02 05:07:45;;;;;;;9.82;4.43;;;;;;;;;;5004379;28;98911;-71
2023/12/02 05:10:11;;;;;;;9.55;4.03;;;;;;;;;;5004604;28;98954;-71
2023/12/02 05:12:38;;;;;;;8.73;4.20;;;;;;;;;;5008179;28;98859;-71
2023/12/02 05:15:04;;;;;;;9.48;4.68;;;;;;;;;;5004163;28;101985;-72
2023/12/02 05:17:32;;;;;;;10.52;4.60;;;;;;;;;;5003990;28;98885;-71
2023/12/02 05:19:59;;;;;;;9.68;4.43;;;;;;;;;;5003477;28;99630;-71
2023/12/02 05:22:25;;;;;;;9.90;4.50;;;;;;;;;;4986276;28;100664;-72
2023/12/02 05:24:52;;;;;;;9.93;4.75;;;;;;;;;;5004205;28;99413;-72
2023/12/02 05:27:18;;;;;;;9.88;4.38;;;;;;;;;;5004532;28;98530;-73
2023/12/02 05:29:45;;;;;;;9.65;4.90;;;;;;;;;;5003711;28;99881;-72
2023/12/02 05:32:11;;;;;;;9.57;4.38;;;;;;;;;;5004061;28;100349;-72
2023/12/02 05:34:38;;;;;;;9.73;4.55;;;;;;;;;;5007486;28;98680;-72
2023/12/02 05:37:05;;;;;;;10.05;4.70;;;;;;;;;;5003268;28;98518;-71
2023/12/02 05:39:31;;;;;;;10.10;5.03;;;;;;;;;;5003712;28;98849;-71
2023/12/02 05:41:58;;;;;;;11.85;4.53;;;;;;;;;;5004758;28;100000;-72
2023/12/02 05:44:24;;;;;;;9.43;4.55;;;;;;;;;;5003374;28;100727;-71
2023/12/02 05:46:51;;;;;;;10.18;4.70;;;;;;;;;;5004838;28;99042;-73
2023/12/02 05:49:17;;;;;;;10.75;4.63;;;;;;;;;;4986532;28;100245;-72
2023/12/02 05:51:44;;;;;;;9.95;4.70;;;;;;;;;;5003095;28;99143;-73
2023/12/02 05:54:11;;;;;;;9.23;4.45;;;;;;;;;;5007897;28;98819;-72
2023/12/02 05:56:37;;;;;;;10.23;4.85;;;;;;;;;;5003682;28;100076;-72
2023/12/02 05:59:04;;;;;;;10.82;5.05;;;;;;;;;;5004369;28;99385;-72
2023/12/02 06:01:30;;;;;;;10.38;4.97;;;;;;;;;;5004047;28;98946;-71
2023/12/02 06:03:57;;;;;;;10.93;5.35;;;;;;;;;;5003826;28;99293;-72
2023/12/02 06:06:24;;;;;;;11.77;5.50;;;;;;;;;;5003939;28;98940;-72
2023/12/02 06:08:50;;;;;;;10.23;5.07;;;;;;;;;;5003946;28;99440;-72
2023/12/02 06:11:17;;;;;;;11.52;5.30;;;;;;;;;;5003823;28;99147;-71
2023/12/02 06:13:43;;;;;;;14.15;6.00;;;;;;;;;;5003453;28;98797;-71
2023/12/02 06:16:10;;;;;;;13.63;5.80;;;;;;;;;;5006618;28;99955;-70
2023/12/02 06:18:36;;;;;;;11.82;5.30;;;;;;;;;;5004019;28;98604;-70
2023/12/02 06:21:03;;;;;;;11.85;5.60;;;;;;;;;;5003617;28;100033;-71
2023/12/02 06:23:30;;;;;;;12.35;5.80;;;;;;;;;;5003042;28;100150;-71
2023/12/02 06:25:56;;;;;;;17.13;5.53;;;;;;;;;;5003703;28;98440;-70
2023/12/02 06:28:23;;;;;;;14.13;5.63;;;;;;;;;;5004160;28;99308;-70
2023/12/02 06:30:49;;;;;;;14.18;5.32;;;;;;;;;;5003417;28;99407;-71
2023/12/02 06:33:16;;;;;;;12.70;5.40;;;;;;;;;;4985266;28;99589;-71
2023/12/02 06:35:43;;;;;;;12.23;5.05;;;;;;;;;;5002657;28;99708;-70
2023/12/02 06:38:10;;;;;;;11.80;5.05;;;;;;;;;;5006444;28;99075;-71
2023/12/02 06:40:36;;;;;;;12.55;5.47;;;;;;;;;;5003694;28;98836;-71
2023/12/02 06:43:03;;;;;;;11.90;5.32;;;;;;;;;;5003439;28;99216;-71
2023/12/02 06:45:29;;;;;;;11.77;5.50;;;;;;;;;;5003469;28;99444;-71
2023/12/02 06:47:57;;;;;;;10.75;4.93;;;;;;;;;;5004192;28;104513;-71
2023/12/02 06:50:23;;;;;;;10.70;4.63;;;;;;;;;;5006818;28;99912;-72
2023/12/02 06:52:50;;;;;;;10.80;4.93;;;;;;;;;;5007583;28;99575;-72
2023/12/02 06:55:17;;;;;;;10.20;5.00;;;;;;;;;;5007088;28;98945;-71
2023/12/02 06:57:46;;;;;;;11.20;5.20;;;;;;;;;;5005633;28;101301;-70
2023/12/02 07:00:13;;;;;;;13.85;5.22;;;;;;;;;;5009953;28;98791;-71
2023/12/02 07:02:41;;;;;;;10.32;4.95;;;;;;;;;;5007043;28;99144;-71
2023/12/02 07:05:08;;;;;;;10.98;5.05;;;;;;;;;;5006860;28;98812;-71
2023/12/02 07:07:35;;;;;;;10.93;5.18;;;;;;;;;;5006694;28;100264;-70
2023/12/02 07:10:02;;;;;;;11.00;5.20;;;;;;;;;;4988216;28;102270;-71
2023/12/02 07:12:29;;;;;;;10.43;4.90;;;;;;;;;;5007185;28;98562;-71
2023/12/02 07:14:55;;;;;;;10.18;5.00;;;;;;;;;;5007010;28;98883;-70
2023/12/02 07:17:22;;;;;;;11.82;5.07;;;;;;;;;;5006589;28;99094;-71
2023/12/02 07:19:49;;;;;;;9.82;4.75;;;;;;;;;;4987792;28;98795;-71
2023/12/02 07:22:16;;;;;;;10.02;4.50;;;;;;;;;;5009429;28;99156;-72
2023/12/02 07:24:42;;;;;;;10.07;4.75;;;;;;;;;;4997112;28;98933;-72
2023/12/02 07:27:09;;;;;;;10.68;4.63;;;;;;;;;;5006762;28;100060;-72
2023/12/02 07:29:37;;;;;;;10.80;5.07;;;;;;;;;;5005807;27;100054;-71
2023/12/02 07:32:06;;;;;;;10.63;5.07;;;;;;;;;;5006974;27;98645;-71
2023/12/02 07:34:33;;;;;;;10.82;4.75;;;;;;;;;;5006804;27;99474;-72
2023/12/02 07:36:59;;;;;;;9.57;4.82;;;;;;;;;;5005267;27;100162;-71
2023/12/02 07:39:26;;;;;;;11.43;5.10;;;;;;;;;;5006701;27;98119;-71
2023/12/02 07:41:52;;;;;;;12.52;4.78;;;;;;;;;;5008148;28;99027;-71
2023/12/02 07:44:19;;;;;;;10.18;4.82;;;;;;;;;;5005619;28;98643;-71
2023/12/02 07:46:45;;;;;;;10.40;4.93;;;;;;;;;;5005448;28;100046;-71
2023/12/02 07:49:12;;;;;;;11.52;5.20;;;;;;;;;;5005243;28;100465;-71
2023/12/02 07:51:38;;;;;;;12.05;5.30;;;;;;;;;;5004066;28;98567;-71
2023/12/02 07:54:05;;;;;;;10.98;4.88;;;;;;;;;;5006378;28;98889;-71
2023/12/02 07:56:31;;;;;;;11.15;4.75;;;;;;;;;;5005341;28;99698;-72
2023/12/02 07:58:58;;;;;;;9.60;4.72;;;;;;;;;;5005381;28;98716;-71
2023/12/02 08:01:25;;;;;;;11.77;5.00;;;;;;;;;;5004622;28;98953;-72
2023/12/02 08:03:51;;;;;;;11.90;5.15;;;;;;;;;;5008331;28;99761;-72
2023/12/02 08:06:18;;;;;;;11.13;5.47;;;;;;;;;;5005500;28;98674;-71
2023/12/02 08:08:45;;;;;;;12.75;5.30;;;;;;;;;;5004554;28;99171;-71
2023/12/02 08:11:12;;;;;;;10.32;4.82;;;;;;;;;;5004613;28;99634;-71
2023/12/02 08:13:38;;;;;;;12.52;5.10;;;;;;;;;;5004439;28;98575;-71
2023/12/02 08:16:05;;;;;;;10.27;4.90;;;;;;;;;;5004654;28;100429;-71
2023/12/02 08:18:32;;;;;;;11.32;5.13;;;;;;;;;;5005588;28;98803;-72
2023/12/02 08:20:58;;;;;;;12.18;5.28;;;;;;;;;;5005185;28;99114;-70
2023/12/02 08:23:25;;;;;;;10.32;4.97;;;;;;;;;;4986266;28;100017;-71
2023/12/02 08:25:52;;;;;;;11.07;5.07;;;;;;;;;;5005459;28;99385;-71
2023/12/02 08:28:18;;;;;;;9.95;4.65;;;;;;;;;;5005403;27;98504;-71
2023/12/02 08:30:45;;;;;;;13.05;5.38;;;;;;;;;;5005114;28;98603;-72
2023/12/02 08:33:11;;;;;;;18.15;5.30;;;;;;;;;;5005222;27;99919;-72
2023/12/02 08:35:38;;;;;;;15.02;5.07;;;;;;;;;;5002832;27;99962;-70
2023/12/02 08:38:04;;;;;;;16.17;5.60;;;;;;;;;;5004677;27;98928;-70
2023/12/02 08:40:31;;;;;;;12.05;5.03;;;;;;;;;;5004885;28;99858;-70
2023/12/02 08:42:57;;;;;;;11.85;5.40;;;;;;;;;;5004861;28;99236;-70
2023/12/02 08:45:24;;;;;;;9.90;4.95;;;;;;;;;;5004770;28;98592;-71
2023/12/02 08:47:50;;;;;;;11.45;5.40;;;;;;;;;;5007492;28;100299;-70
2023/12/02 08:50:17;;;;;;;9.55;4.95;;;;;;;;;;5005040;28;98942;-70
2023/12/02 08:52:43;;;;;;;10.07;5.18;;;;;;;;;;5005293;28;100217;-70
2023/12/02 08:55:10;;;;;;;10.95;5.25;;;;;;;;;;5004596;28;99228;-69
2023/12/02 08:57:40;;;;;;;10.27;5.05;;;;;;;;;;5004376;28;98654;-70
2023/12/02 09:00:06;;;;;;;10.98;5.18;;;;;;;;;;5004080;28;99552;-70
2023/12/02 09:02:33;;;;;;;11.05;5.05;;;;;;;;;;5004149;28;100384;-70
2023/12/02 09:05:02;;;;;;;10.48;4.80;;;;;;;;;;5005092;28;99371;-70
2023/12/02 09:07:29;;;;;;;9.40;4.68;;;;;;;;;;5004149;28;99984;-71
2023/12/02 09:09:55;;;;;;;9.52;5.00;;;;;;;;;;5007146;28;104231;-70
2023/12/02 09:12:22;;;;;;;10.35;4.75;;;;;;;;;;5004709;28;98868;-70
2023/12/02 09:15:05;;;;;;;9.80;4.80;;;;;;;;;;5002898;28;99158;-70
2023/12/02 09:17:55;;;;;;;10.30;4.97;;;;;;;;;;5003653;28;97967;-69
2023/12/02 09:20:43;;;;;;;9.65;4.90;;;;;;;;;;5000559;28;98932;-71
2023/12/02 09:23:10;;;;;;;9.55;5.07;;;;;;;;;;5004134;28;100150;-70
2023/12/02 09:25:38;;;;;;;10.93;5.30;;;;;;;;;;5003147;28;99637;-69
2023/12/02 09:28:09;;;;;;;9.75;4.95;;;;;;;;;;5003865;27;100162;-70
2023/12/02 09:30:49;;;;;;;10.63;5.28;;;;;;;;;;5003487;27;99286;-71
2023/12/02 09:33:31;;;;;;;11.10;5.15;;;;;;;;;;5007421;27;99407;-69
2023/12/02 09:35:59;;;;;;;9.73;4.85;;;;;;;;;;5002487;27;100225;-70
2023/12/02 09:38:26;;;;;;;10.68;4.57;;;;;;;;;;5003820;28;99057;-70
2023/12/02 09:40:53;;;;;;;;;;;;;;;;;;5004146;28;100276;-70
2023/12/02 09:43:37;;;;;;;10.27;5.30;;;;;;;;;;5005240;28;99241;-71
2023/12/02 09:46:24;;;;;;;9.50;4.85;;;;;;;;;;5002000;28;98867;-70
2023/12/02 09:49:03;;;;;;;10.32;5.25;;;;;;;;;;5003069;28;98875;-70
2023/12/02 09:51:43;;;;;;;14.27;5.40;;;;;;;;;;5001796;28;99879;-70
2023/12/02 09:54:20;;;;;;;11.02;5.90;;;;;;;;;;5005819;28;99290;-71
2023/12/02 09:56:55;;;;;;;11.73;5.05;;;;;;;;;;5002541;28;100487;-71
2023/12/02 09:59:28;;;;;;;9.65;5.32;;;;;;;;;;5002690;28;99233;-70
2023/12/02 10:02:17;;;;;;;10.52;5.32;;;;;;;;;;5001936;28;98899;-70
2023/12/02 10:04:47;;;;;;;9.38;4.28;;;;;;;;;;5002284;28;100528;-70
2023/12/02 10:07:14;;;;;;;9.77;5.35;;;;;;;;;;5002680;28;98478;-70
2023/12/02 10:09:43;;;;;;;9.88;5.18;;;;;;;;;;5002529;28;99402;-70
2023/12/02 10:12:19;;;;;;;9.30;4.80;;;;;;;;;;5002234;28;99181;-70
2023/12/02 10:14:49;;;;;;;8.95;4.75;;;;;;;;;;5002485;28;98892;-72
2023/12/02 10:17:18;;;;;;;8.60;4.90;;;;;;;;;;5005358;28;99650;-72
2023/12/02 10:19:51;;;;;;;8.93;4.80;;;;;;;;;;4990164;28;98499;-70
2023/12/02 10:22:17;;;;;;;;;;;;;;;;;;4983158;28;99159;-70
2023/12/02 10:24:44;;;;;;;10.50;5.38;;;;;;;;;;4990333;28;126710;-70
2023/12/02 10:27:15;;;;;;;10.02;4.90;;;;;;;;;;5003110;27;98974;-70
2023/12/02 10:29:49;;;;;;;12.20;5.03;;;;;;;;;;5001511;27;98972;-70
2023/12/02 10:32:30;;;;;;;10.20;5.45;;;;;;;;;;5002408;28;100726;-70
2023/12/02 10:35:09;;;;;;;8.40;4.57;;;;;;;;;;5003464;28;98067;-70
2023/12/02 10:37:36;;;;;;;9.15;4.85;;;;;;;;;;5001647;27;98825;-69
2023/12/02 10:40:07;;;;;;;9.90;4.65;;;;;;;;;;4994094;28;101998;-71
2023/12/02 10:42:46;;;;;;;9.77;5.00;;;;;;;;;;5001735;28;99881;-71
2023/12/02 10:45:14;;;;;;;10.45;4.97;;;;;;;;;;5001605;28;100134;-70
2023/12/02 10:47:41;;;;;;;10.80;5.18;;;;;;;;;;5001496;28;98665;-71
2023/12/02 10:50:08;;;;;;;9.25;4.93;;;;;;;;;;5001199;28;99917;-69
2023/12/02 10:52:36;;;;;;;10.10;5.38;;;;;;;;;;5001540;28;99230;-70
2023/12/02 10:55:06;;;;;;;9.18;4.85;;;;;;;;;;5002442;28;98707;-71
2023/12/02 10:57:33;;;;;;;10.98;5.30;;;;;;;;;;5001641;28;98915;-69
2023/12/02 10:59:59;;;;;;;;;;;;;;;;;;5002886;28;98395;-69
2023/12/02 11:02:30;;;;;;;11.35;4.82;;;;;;;;;;5006702;28;98925;-69
2023/12/02 11:05:07;;;;;;;9.23;4.43;;;;;;;;;;5000730;28;100164;-70
2023/12/02 11:07:34;;;;;;;9.90;5.07;;;;;;;;;;5000685;28;99657;-69
2023/12/02 11:10:02;;;;;;;10.23;4.88;;;;;;;;;;5002245;28;100055;-70
2023/12/02 11:12:38;;;;;;;9.63;4.97;;;;;;;;;;5001567;28;99087;-70
2023/12/02 11:15:09;;;;;;;8.88;4.50;;;;;;;;;;5001600;28;98853;-70
2023/12/02 11:17:41;;;;;;;10.07;4.88;;;;;;;;;;4995775;28;100609;-70
2023/12/02 11:20:14;;;;;;;9.25;4.50;;;;;;;;;;4981578;28;99304;-71
2023/12/02 11:22:52;;;;;;;10.38;4.80;;;;;;;;;;4982295;28;98820;-71
2023/12/02 11:25:27;;;;;;;10.05;4.50;;;;;;;;;;4995157;28;101413;-71
2023/12/02 11:27:59;;;;;;;10.52;5.13;;;;;;;;;;5000974;27;98624;-72
2023/12/02 11:30:28;;;;;;;8.40;4.20;;;;;;;;;;5000897;28;99909;-70
2023/12/02 11:32:55;;;;;;;8.48;4.50;;;;;;;;;;5000969;28;100552;-72
2023/12/02 11:35:25;;;;;;;8.57;4.32;;;;;;;;;;5004664;27;99141;-72
2023/12/02 11:37:51;;;;;;;8.60;4.15;;;;;;;;;;5004431;27;99931;-71
2023/12/02 11:40:22;;;;;;;9.88;4.30;;;;;;;;;;5004320;28;99182;-71
2023/12/02 11:42:56;;;;;;;8.85;4.45;;;;;;;;;;5004394;28;98541;-71
2023/12/02 11:45:25;;;;;;;8.88;4.00;;;;;;;;;;5004800;28;99846;-71
2023/12/02 11:47:51;;;;;;;9.45;4.25;;;;;;;;;;5008078;28;99188;-71
2023/12/02 11:50:41;;;;;;;8.80;3.90;;;;;;;;;;5005437;28;99903;-70
2023/12/02 11:53:26;;;;;;;8.77;4.15;;;;;;;;;;5005834;28;100326;-71
2023/12/02 11:55:55;;;;;;;7.70;3.72;;;;;;;;;;5004766;28;99076;-70
2023/12/02 11:58:26;;;;;;;8.48;3.90;;;;;;;;;;5005019;28;100305;-71
2023/12/02 12:01:01;;;;;;;7.88;3.75;;;;;;;;;;5004139;28;100497;-71
2023/12/02 12:03:47;;;;;;;7.68;3.88;;;;;;;;;;5005066;28;98736;-71
2023/12/02 12:06:24;;;;;;;7.20;3.53;;;;;;;;;;5004276;28;104388;-71
2023/12/02 12:09:03;;;;;;;7.90;3.80;;;;;;;;;;4988842;28;99708;-72
2023/12/02 12:11:30;;;;;;;7.32;3.92;;;;;;;;;;4985383;28;99879;-72
2023/12/02 12:13:57;;;;;;;8.45;4.28;;;;;;;;;;4985043;28;104714;-72
2023/12/02 12:16:24;;;;;;;9.18;4.35;;;;;;;;;;4985366;28;98348;-73
2023/12/02 12:19:03;;;;;;;9.18;4.30;;;;;;;;;;4969794;28;98938;-73
2023/12/02 12:21:29;;;;;;;9.55;4.40;;;;;;;;;;4984959;28;100225;-73
2023/12/02 12:23:56;;;;;;;10.23;4.20;;;;;;;;;;4984669;28;99570;-74
2023/12/02 12:26:22;;;;;;;10.68;4.40;;;;;;;;;;5002273;28;102622;-73
2023/12/02 12:28:49;;;;;;;8.93;4.30;;;;;;;;;;5004737;28;99143;-73
2023/12/02 12:31:17;;;;;;;9.57;4.50;;;;;;;;;;5008492;28;98977;-73
2023/12/02 12:33:44;;;;;;;10.55;4.53;;;;;;;;;;5003702;27;100503;-73
2023/12/02 12:36:11;;;;;;;10.52;4.20;;;;;;;;;;5003687;28;98890;-73
2023/12/02 12:38:38;;;;;;;8.57;4.30;;;;;;;;;;5005250;28;99778;-72
2023/12/02 12:41:07;;;;;;;9.57;4.65;;;;;;;;;;5004833;28;99777;-73
2023/12/02 12:43:36;;;;;;;9.63;3.92;;;;;;;;;;5004137;28;99052;-71
2023/12/02 12:46:09;;;;;;;11.18;3.90;;;;;;;;;;5003499;28;98847;-72
2023/12/02 12:48:38;;;;;;;10.70;4.35;;;;;;;;;;5003533;28;101196;-74
2023/12/02 12:51:06;;;;;;;9.68;4.90;;;;;;;;;;5003897;28;98851;-73
2023/12/02 12:53:35;;;;;;;9.32;4.65;;;;;;;;;;5006652;28;98996;-72
2023/12/02 12:56:09;;;;;;;8.63;4.03;;;;;;;;;;5003255;28;98909;-73
2023/12/02 12:58:46;;;;;;;9.23;4.28;;;;;;;;;;5003161;28;100122;-73
2023/12/02 13:01:13;;;;;;;11.55;6.20;;;;;;;;;;5002558;28;99242;-74
2023/12/02 13:03:50;;;;;;;9.43;4.50;;;;;;;;;;5002526;28;99039;-73
2023/12/02 13:06:16;;;;;;;;;;;;;;;;;;4985961;28;98916;-73
2023/12/02 13:08:58;;;;;;;11.40;4.38;;;;;;;;;;5003367;28;115573;-73
2023/12/02 13:11:25;;;;;;;11.30;4.70;;;;;;;;;;5004311;28;98885;-73
2023/12/02 13:14:06;;;;;;;11.27;4.70;;;;;;;;;;5002894;28;99850;-73
2023/12/02 13:16:33;;;;;;;11.88;4.88;;;;;;;;;;4987205;28;99210;-73
2023/12/02 13:19:00;;;;;;;8.60;4.30;;;;;;;;;;4984300;28;100713;-73
2023/12/02 13:21:27;;;;;;;10.60;4.57;;;;;;;;;;4983948;28;99698;-73
2023/12/02 13:23:56;;;;;;;9.85;4.90;;;;;;;;;;4983760;28;99138;-72
2023/12/02 13:26:26;;;;;;;9.15;4.70;;;;;;;;;;5003325;28;98812;-72
2023/12/02 13:28:55;;;;;;;10.15;4.80;;;;;;;;;;5003897;27;100537;-73
2023/12/02 13:31:22;;;;;;;9.20;4.63;;;;;;;;;;5004547;27;98126;-72
2023/12/02 13:33:59;;;;;;;9.90;5.00;;;;;;;;;;5003926;27;99016;-73
2023/12/02 13:36:36;;;;;;;9.82;4.70;;;;;;;;;;5004341;28;99464;-74
2023/12/02 13:39:09;;;;;;;10.23;4.70;;;;;;;;;;5004361;28;99334;-75
2023/12/02 13:41:51;;;;;;;9.85;5.00;;;;;;;;;;5003454;28;100731;-75
2023/12/02 13:44:18;;;;;;;9.90;4.70;;;;;;;;;;4986803;28;99210;-72
2023/12/02 13:46:56;;;;;;;9.63;4.63;;;;;;;;;;5004060;28;99012;-75
2023/12/02 13:49:31;;;;;;;10.65;5.30;;;;;;;;;;5004145;28;99266;-72
2023/12/02 13:52:10;;;;;;;10.60;4.88;;;;;;;;;;5003858;28;99610;-72
2023/12/02 13:54:49;;;;;;;10.55;4.97;;;;;;;;;;5003828;28;98995;-72
2023/12/02 13:57:34;;;;;;;9.68;4.80;;;;;;;;;;5003636;28;98627;-72
2023/12/02 14:00:00;;;;;;;;;;;;;;;;;;5003509;28;98821;-72
2023/12/02 14:02:33;;;;;;;11.27;5.25;;;;;;;;;;5007938;28;99078;-73
2023/12/02 14:04:59;;;;;;;9.82;4.97;;;;;;;;;;5002687;28;99549;-73
2023/12/02 14:07:31;;;;;;;9.02;4.63;;;;;;;;;;5004108;28;99755;-73
2023/12/02 14:09:58;;;;;;;9.60;4.63;;;;;;;;;;5002580;28;104015;-73
2023/12/02 14:12:33;;;;;;;9.18;4.70;;;;;;;;;;5003331;28;99045;-73
2023/12/02 14:15:03;;;;;;;10.05;4.47;;;;;;;;;;4984129;28;99825;-73
2023/12/02 14:17:45;;;;;;;9.18;4.22;;;;;;;;;;4983170;28;100252;-70
2023/12/02 14:20:22;;;;;;;10.75;4.80;;;;;;;;;;4983425;28;99055;-73
2023/12/02 14:23:03;;;;;;;9.30;4.47;;;;;;;;;;4986631;28;99986;-73
2023/12/02 14:25:50;;;;;;;10.75;4.68;;;;;;;;;;4995135;28;98545;-73
2023/12/02 14:28:32;;;;;;;8.60;4.13;;;;;;;;;;4995618;28;104169;-73
2023/12/02 14:30:59;;;;;;;9.43;4.82;;;;;;;;;;5002355;28;100153;-73
2023/12/02 14:33:37;;;;;;;8.85;4.13;;;;;;;;;;5003047;28;98462;-73
2023/12/02 14:36:10;;;;;;;9.30;4.65;;;;;;;;;;5002479;28;104716;-72
2023/12/02 14:39:09;;;;;;;8.95;4.20;;;;;;;;;;5002508;28;99715;-73
2023/12/02 14:41:59;;;;;;;8.57;4.20;;;;;;;;;;4957871;28;98821;-73
2023/12/02 14:44:27;;;;;;;8.07;4.05;;;;;;;;;;4965044;28;99081;-72
2023/12/02 14:46:55;;;;;;;9.00;4.60;;;;;;;;;;5005719;28;100543;-75